createdAt,value
2023-02-16T00:05:37.918Z,20.23
2023-02-16T00:15:42.266Z,21.73
2023-02-16T00:25:44.942Z,20.20
2023-02-16T00:35:49.024Z,20.10
2023-02-16T00:45:51.879Z,20.65
2023-02-16T00:55:56.027Z,20.80
2023-02-16T01:06:12.850Z,20.80
2023-02-16T01:16:19.725Z,20.65
2023-02-16T01:26:22.890Z,19.17
2023-02-16T01:36:32.514Z,20.27
2023-02-16T01:46:44.065Z,20.48
2023-02-16T01:56:52.631Z,20.63
2023-02-16T02:06:55.319Z,21.83
2023-02-16T02:17:05.232Z,21.38
2023-02-16T02:27:17.477Z,19.73
2023-02-16T02:37:27.717Z,21.17
2023-02-16T02:47:43.813Z,22.73
2023-02-16T02:58:12.767Z,23.38
2023-02-16T03:08:20.054Z,21.92
2023-02-16T03:18:43.821Z,20.95
2023-02-16T03:29:06.512Z,22.75
2023-02-16T03:39:10.473Z,23.30
2023-02-16T03:49:14.729Z,24.15
2023-02-16T03:59:17.344Z,22.75
2023-02-16T04:09:21.355Z,23.70
2023-02-16T04:19:24.777Z,23.27
2023-02-16T04:29:29.226Z,21.33
2023-02-16T04:39:31.901Z,22.15
2023-02-16T04:49:35.933Z,22.90
2023-02-16T04:59:38.899Z,22.80
2023-02-16T05:09:42.863Z,24.52
2023-02-16T05:19:47.821Z,24.73
2023-02-16T05:29:52.048Z,23.88
2023-02-16T05:39:55.911Z,25.77
2023-02-16T05:49:59.959Z,23.10
2023-02-16T06:00:03.325Z,25.70
2023-02-16T06:10:09.024Z,26.08
2023-02-16T06:20:12.247Z,26.23
2023-02-16T06:30:16.591Z,23.75
2023-02-16T06:40:19.369Z,24.20
2023-02-16T06:50:23.501Z,23.90
2023-02-16T07:00:26.458Z,24.33
2023-02-16T07:10:43.661Z,24.77
2023-02-16T07:20:50.241Z,23.17
2023-02-16T07:30:54.247Z,23.52
2023-02-16T07:40:57.144Z,24.00
2023-02-16T07:51:01.964Z,24.75
2023-02-16T08:01:09.599Z,24.05
2023-02-16T08:11:15.245Z,23.48
2023-02-16T08:21:19.357Z,23.42
2023-02-16T08:31:25.814Z,23.63
2023-02-16T08:41:31.316Z,24.15
2023-02-16T08:51:37.990Z,23.40
2023-02-16T09:01:41.535Z,23.25
2023-02-16T09:11:46.086Z,24.00
2023-02-16T09:21:50.592Z,22.67
2023-02-16T09:31:55.713Z,23.75
2023-02-16T09:42:12.700Z,26.48
2023-02-16T09:52:24.144Z,26.75
2023-02-16T10:02:38.124Z,24.17
2023-02-16T10:12:51.474Z,25.27
2023-02-16T10:22:59.953Z,25.20
2023-02-16T10:33:15.815Z,24.95
2023-02-16T10:43:24.454Z,25.48
2023-02-16T10:53:40.594Z,25.75
2023-02-16T11:03:48.697Z,27.13
2023-02-16T11:13:59.533Z,28.15
2023-02-16T11:24:02.800Z,27.20
2023-02-16T11:34:13.138Z,29.75
2023-02-16T11:44:27.689Z,29.98
2023-02-16T11:54:31.694Z,31.92
2023-02-16T12:04:51.623Z,32.42
2023-02-16T12:15:04.203Z,29.87
2023-02-16T12:25:22.399Z,30.45
2023-02-16T12:35:41.246Z,33.47
2023-02-16T12:45:46.124Z,30.48
2023-02-16T12:55:55.205Z,29.10
2023-02-16T13:06:09.171Z,29.20
2023-02-16T13:16:29.601Z,31.35
2023-02-16T13:26:46.910Z,31.05
2023-02-16T13:37:09.434Z,30.63
2023-02-16T13:47:16.137Z,33.47
2023-02-16T13:58:01.273Z,30.73
2023-02-16T14:08:22.595Z,31.08
2023-02-16T14:18:33.669Z,30.83
2023-02-16T14:29:10.050Z,29.15
2023-02-16T14:39:18.764Z,28.33
2023-02-16T14:49:55.160Z,27.80
2023-02-16T15:00:04.024Z,27.20
2023-02-16T15:10:10.129Z,26.10
2023-02-16T15:20:24.929Z,26.70
2023-02-16T15:30:29.716Z,26.67
2023-02-16T15:40:35.253Z,25.73
2023-02-16T15:50:38.418Z,26.60
2023-02-16T16:00:43.624Z,27.33
2023-02-16T16:10:48.294Z,25.50
2023-02-16T16:21:00.832Z,24.98
2023-02-16T16:31:11.505Z,26.58
2023-02-16T16:41:27.632Z,32.00
2023-02-16T16:51:40.141Z,30.02
2023-02-16T17:01:45.946Z,23.40
2023-02-16T17:11:48.633Z,25.65
2023-02-16T17:21:52.542Z,29.45
2023-02-16T17:31:55.261Z,28.75
2023-02-16T17:42:00.135Z,27.25
2023-02-16T17:52:02.756Z,28.73
2023-02-16T18:02:07.171Z,31.77
2023-02-16T18:12:10.484Z,32.35
2023-02-16T18:22:14.493Z,25.90
2023-02-16T18:32:17.089Z,23.55
2023-02-16T18:42:21.084Z,24.90
2023-02-16T18:52:24.353Z,25.00
2023-02-16T19:02:28.320Z,25.40
2023-02-16T19:12:31.018Z,24.20
2023-02-16T19:22:37.142Z,26.65
2023-02-16T19:32:40.926Z,25.02
2023-02-16T19:42:45.258Z,27.75
2023-02-16T19:52:47.848Z,27.10
2023-02-16T20:02:53.351Z,28.92
2023-02-16T20:12:55.991Z,25.48
2023-02-16T20:23:00.126Z,25.77
2023-02-16T20:33:02.733Z,27.02
2023-02-16T20:43:06.743Z,26.67
2023-02-16T20:53:09.589Z,25.30
2023-02-16T21:03:13.539Z,20.40
2023-02-16T21:13:16.153Z,22.13
2023-02-16T21:23:20.157Z,21.60
2023-02-16T21:33:23.375Z,22.08
2023-02-16T21:43:27.450Z,18.15
2023-02-16T21:53:30.941Z,19.83
2023-02-16T22:03:34.946Z,20.75
2023-02-16T22:13:38.238Z,19.63
2023-02-16T22:23:42.420Z,19.15
2023-02-16T22:33:45.113Z,17.77
2023-02-16T22:43:52.388Z,16.42
2023-02-16T22:53:55.009Z,14.02
2023-02-16T23:04:00.985Z,15.23
2023-02-16T23:14:04.681Z,15.95
2023-02-16T23:24:12.663Z,13.32
2023-02-16T23:34:16.396Z,13.07
2023-02-16T23:44:20.523Z,12.98
2023-02-16T23:54:23.104Z,13.10
